Terminal Aerodrome Forecast
Issued by NWS Twin Cities, MN

Home | Current Version | Previous Version | Graphics & Text | Print | Product List | Glossary On
Versions: 1 2 3 4 5 6 7 8 9 10 11 12 13 14 15 16 17 18 19 20 21 22 23 24 25 26 27
000
FTUS43 KMPX 182000 AAA
TAFMSP
TAF AMD
KMSP 182047Z 1821/1924 25009KT P6SM OVC035
     FM182200 22008KT P6SM -SN SCT025 OVC035
     FM190100 17005KT P6SM SCT025 BKN090
     FM190600 21006KT 2SM -SN OVC015
     FM191000 26012KT P6SM -SN BKN025
     FM191700 29015G25KT 6SM -SHSN BKN030=

USA.gov is the U.S. government's official web portal to all federal, state and local government web resources and services.